Time;durP1;ratioP1;P1;durP2;ratioP2;P2;SDS_P1;SDS_P2;PMS_P1;PMS_P2;Temp;Humidity;BMP_temperature;BMP_pressure;BME280_temperature;BME280_humidity;BME280_pressure;Samples;Min_cycle;Max_cycle;Signal;HPM_P1;HPM_P2
2021/03/12 00:01:54;;;;;;;1.67;1.30;;;5.30;99.90;;;;;;5109768;28;20252;-73
2021/03/12 00:04:21;;;;;;;1.65;1.00;;;5.30;99.90;;;;;;5109823;28;20206;-73
2021/03/12 00:06:47;;;;;;;1.60;1.20;;;5.40;99.90;;;;;;5109158;28;20211;-73
2021/03/12 00:09:14;;;;;;;2.95;1.17;;;5.40;99.90;;;;;;5108902;28;20620;-73
2021/03/12 00:11:41;;;;;;;3.05;1.17;;;5.40;99.90;;;;;;5109289;28;20231;-73
2021/03/12 00:14:07;;;;;;;1.23;0.88;;;5.50;99.90;;;;;;5109591;28;20199;-73
2021/03/12 00:16:33;;;;;;;2.15;1.20;;;5.70;99.90;;;;;;5109101;28;20195;-73
2021/03/12 00:18:59;;;;;;;2.05;1.27;;;5.70;99.90;;;;;;5109130;28;20192;-73
2021/03/12 00:21:27;;;;;;;1.40;1.10;;;5.80;99.90;;;;;;5109410;28;20226;-73
2021/03/12 00:23:53;;;;;;;2.10;1.02;;;5.80;99.90;;;;;;5109087;28;21141;-73
2021/03/12 00:26:20;;;;;;;1.90;1.48;;;5.90;99.90;;;;;;5110432;28;20199;-74
2021/03/12 00:28:47;;;;;;;2.55;1.00;;;5.90;99.90;;;;;;5112587;28;20232;-73
2021/03/12 00:31:13;;;;;;;2.10;1.00;;;5.90;99.90;;;;;;5113475;28;20283;-73
2021/03/12 00:33:39;;;;;;;1.55;1.40;;;5.90;99.90;;;;;;5113144;28;20206;-73
2021/03/12 00:36:06;;;;;;;2.10;1.20;;;6.00;99.90;;;;;;5113191;28;20195;-73
2021/03/12 00:38:34;;;;;;;1.65;1.20;;;6.00;99.90;;;;;;5112903;28;20203;-73
2021/03/12 00:41:02;;;;;;;1.45;1.00;;;6.00;99.90;;;;;;5109649;28;20892;-73
2021/03/12 00:43:28;;;;;;;2.10;1.10;;;6.00;99.90;;;;;;5112353;28;20195;-73
2021/03/12 00:45:57;;;;;;;3.40;1.15;;;6.10;99.90;;;;;;5112782;28;20218;-73
2021/03/12 00:48:24;;;;;;;2.65;1.17;;;6.10;99.90;;;;;;5113042;28;20203;-73
2021/03/12 00:50:51;;;;;;;2.10;1.10;;;6.10;99.90;;;;;;5112200;28;20253;-73
2021/03/12 00:53:18;;;;;;;2.35;1.05;;;6.20;99.90;;;;;;5112605;28;20209;-72
2021/03/12 00:55:45;;;;;;;3.90;1.17;;;6.20;99.90;;;;;;5112909;28;20252;-73
2021/03/12 00:58:11;;;;;;;2.67;1.17;;;6.10;99.90;;;;;;5112768;28;20201;-73
2021/03/12 01:00:39;;;;;;;3.65;1.10;;;6.20;99.90;;;;;;5112071;28;20280;-73
2021/03/12 01:03:05;;;;;;;6.28;1.60;;;6.30;99.90;;;;;;5113009;28;20198;-73
2021/03/12 01:05:32;;;;;;;2.85;1.65;;;6.30;99.90;;;;;;5112350;28;20203;-73
2021/03/12 01:07:59;;;;;;;5.85;1.70;;;6.20;99.90;;;;;;5112689;28;20668;-73
2021/03/12 01:10:26;;;;;;;2.45;1.10;;;6.20;99.90;;;;;;5111807;28;20223;-73
2021/03/12 01:12:53;;;;;;;2.00;1.25;;;6.20;99.90;;;;;;5112471;28;20211;-73
2021/03/12 01:15:22;;;;;;;1.90;1.10;;;6.30;99.90;;;;;;5112394;28;20661;-73
2021/03/12 01:17:48;;;;;;;1.88;1.42;;;6.30;99.90;;;;;;5112222;28;20206;-73
2021/03/12 01:20:18;;;;;;;5.80;1.52;;;6.40;99.90;;;;;;5111981;28;20206;-73
2021/03/12 01:22:44;;;;;;;3.13;1.42;;;6.40;99.90;;;;;;5111800;28;20203;-73
2021/03/12 01:25:13;;;;;;;3.30;1.40;;;6.40;99.90;;;;;;5112366;28;20199;-74
2021/03/12 01:27:39;;;;;;;2.03;1.20;;;6.40;99.90;;;;;;5112182;28;20199;-73
2021/03/12 01:30:12;;;;;;;3.00;1.13;;;6.40;99.90;;;;;;5111672;28;20234;-73
2021/03/12 01:32:38;;;;;;;2.92;1.50;;;6.40;99.90;;;;;;5112019;28;20564;-73
2021/03/12 01:35:06;;;;;;;1.33;1.10;;;6.40;99.90;;;;;;5111956;28;20653;-73
2021/03/12 01:37:32;;;;;;;1.60;1.10;;;6.40;99.90;;;;;;5111064;28;20211;-73
2021/03/12 01:39:58;;;;;;;1.80;1.15;;;6.40;99.90;;;;;;5111268;28;20222;-72
2021/03/12 01:42:25;;;;;;;3.10;1.55;;;6.40;99.90;;;;;;5112005;28;20210;-73
2021/03/12 01:44:51;;;;;;;4.70;1.67;;;6.50;99.90;;;;;;5111743;28;20696;-73
2021/03/12 01:47:18;;;;;;;1.90;1.15;;;6.50;99.90;;;;;;5111736;28;20219;-73
2021/03/12 01:49:45;;;;;;;1.33;0.90;;;6.50;99.90;;;;;;5111121;28;20214;-73
2021/03/12 01:52:11;;;;;;;3.67;1.15;;;6.40;99.90;;;;;;5111771;28;20231;-73
2021/03/12 01:54:38;;;;;;;1.40;1.00;;;6.20;99.90;;;;;;5111992;28;20685;-72
2021/03/12 01:57:05;;;;;;;1.75;0.93;;;6.00;99.90;;;;;;5112031;28;20210;-73
2021/03/12 01:59:32;;;;;;;1.90;1.17;;;5.80;99.90;;;;;;5111182;28;20210;-73
2021/03/12 02:01:59;;;;;;;2.47;1.02;;;5.50;99.90;;;;;;5111463;28;20641;-73
2021/03/12 02:04:27;;;;;;;1.92;1.00;;;5.40;99.90;;;;;;5111351;28;20264;-74
2021/03/12 02:06:53;;;;;;;2.67;1.48;;;5.40;99.90;;;;;;5111259;28;20206;-74
2021/03/12 02:09:20;;;;;;;1.70;1.02;;;5.40;99.90;;;;;;5110933;28;20223;-73
2021/03/12 02:11:57;;;;;;;3.10;1.40;;;5.30;99.90;;;;;;5111016;28;20756;-73
2021/03/12 02:14:28;;;;;;;2.05;1.27;;;5.30;99.90;;;;;;5111387;28;20203;-74
2021/03/12 02:16:58;;;;;;;1.42;1.30;;;5.30;99.90;;;;;;5111103;28;20195;-73
2021/03/12 02:19:51;;;;;;;1.80;1.20;;;5.30;99.90;;;;;;5110913;28;20347;-73
2021/03/12 02:22:21;;;;;;;2.55;1.83;;;5.40;99.90;;;;;;5110952;28;20226;-73
2021/03/12 02:24:52;;;;;;;2.53;1.38;;;5.40;99.90;;;;;;5110982;28;20246;-73
2021/03/12 02:27:21;;;;;;;2.30;1.20;;;5.30;99.90;;;;;;5111115;28;20203;-73
2021/03/12 02:29:51;;;;;;;3.70;1.35;;;5.30;99.90;;;;;;5110177;28;20230;-73
2021/03/12 02:32:21;;;;;;;1.00;0.90;;;5.30;99.90;;;;;;5110950;28;20219;-73
2021/03/12 02:34:48;;;;;;;1.40;0.93;;;5.30;99.90;;;;;;5110677;28;20206;-73
2021/03/12 02:37:17;;;;;;;3.90;1.40;;;5.30;99.90;;;;;;5110972;28;20211;-73
2021/03/12 02:39:47;;;;;;;2.13;1.20;;;5.30;99.90;;;;;;5110055;28;20199;-73
2021/03/12 02:42:14;;;;;;;1.83;1.40;;;5.40;99.90;;;;;;5110658;28;20244;-73
2021/03/12 02:44:43;;;;;;;3.53;1.40;;;5.40;99.90;;;;;;5110520;28;20210;-73
2021/03/12 02:47:14;;;;;;;2.90;1.08;;;5.30;99.90;;;;;;5110654;28;20231;-72
2021/03/12 02:49:41;;;;;;;4.22;1.33;;;5.30;99.90;;;;;;5109658;28;20226;-73
2021/03/12 02:52:08;;;;;;;4.80;1.60;;;5.30;99.90;;;;;;5110339;28;20227;-73
2021/03/12 02:54:35;;;;;;;6.47;1.35;;;5.30;99.90;;;;;;5110304;28;20203;-73
2021/03/12 02:57:02;;;;;;;2.97;1.10;;;5.30;99.90;;;;;;5110754;28;20206;-74
2021/03/12 02:59:28;;;;;;;1.10;1.00;;;5.30;99.90;;;;;;5109953;28;20199;-73
2021/03/12 03:01:57;;;;;;;4.47;1.30;;;5.30;99.90;;;;;;5110230;28;20225;-73
2021/03/12 03:04:24;;;;;;;1.45;1.15;;;5.30;99.90;;;;;;5110215;28;20205;-73
2021/03/12 03:06:52;;;;;;;3.40;1.33;;;5.20;99.90;;;;;;5110027;28;20213;-73
2021/03/12 03:09:20;;;;;;;5.47;1.77;;;5.20;99.90;;;;;;5109657;28;20211;-73
2021/03/12 03:11:47;;;;;;;4.30;1.48;;;5.20;99.90;;;;;;5109826;28;20219;-73
2021/03/12 03:14:15;;;;;;;2.90;1.35;;;5.20;99.90;;;;;;5110433;28;20207;-73
2021/03/12 03:16:44;;;;;;;1.73;1.20;;;5.20;99.90;;;;;;5109848;28;20195;-73
2021/03/12 03:19:13;;;;;;;2.42;1.52;;;5.30;99.90;;;;;;5109611;28;20203;-73
2021/03/12 03:21:42;;;;;;;1.45;1.15;;;5.20;99.90;;;;;;5109786;28;20264;-73
2021/03/12 03:24:10;;;;;;;2.50;1.40;;;5.20;99.90;;;;;;5110050;28;20572;-73
2021/03/12 03:26:36;;;;;;;3.30;1.10;;;5.20;99.90;;;;;;5109860;28;20206;-73
2021/03/12 03:29:04;;;;;;;2.70;1.20;;;5.10;99.90;;;;;;5110653;28;20199;-73
2021/03/12 03:31:30;;;;;;;2.97;1.48;;;5.10;99.90;;;;;;5110049;28;20226;-73
2021/03/12 03:33:57;;;;;;;2.60;1.50;;;5.20;99.90;;;;;;5109825;28;20222;-73
2021/03/12 03:36:24;;;;;;;2.95;1.20;;;5.10;99.90;;;;;;5109759;28;20203;-73
2021/03/12 03:38:50;;;;;;;3.05;1.70;;;5.10;99.90;;;;;;5109444;28;20203;-73
2021/03/12 03:41:17;;;;;;;5.43;1.50;;;5.10;99.90;;;;;;5109679;28;20229;-73
2021/03/12 03:43:47;;;;;;;2.42;1.10;;;5.00;99.90;;;;;;5109581;28;20195;-73
2021/03/12 03:46:15;;;;;;;1.42;0.90;;;5.00;99.90;;;;;;5109783;28;20574;-73
2021/03/12 03:48:43;;;;;;;4.32;2.15;;;5.00;99.90;;;;;;5109040;28;20214;-73
2021/03/12 03:51:11;;;;;;;3.60;1.30;;;5.10;99.90;;;;;;5109585;28;20243;-73
2021/03/12 03:53:40;;;;;;;1.98;1.10;;;5.10;99.90;;;;;;5109331;28;20205;-73
2021/03/12 03:56:08;;;;;;;5.22;1.17;;;5.10;99.90;;;;;;5110233;28;20199;-73
2021/03/12 03:58:37;;;;;;;2.92;1.35;;;5.10;99.90;;;;;;5109174;28;20224;-73
2021/03/12 04:01:03;;;;;;;3.33;1.40;;;5.10;99.90;;;;;;5111497;28;20218;-73
2021/03/12 04:03:30;;;;;;;3.08;1.33;;;5.10;99.90;;;;;;5116368;28;20191;-74
2021/03/12 04:05:58;;;;;;;3.28;1.25;;;5.20;99.90;;;;;;5116126;28;20206;-74
2021/03/12 04:08:24;;;;;;;1.70;1.00;;;5.20;99.90;;;;;;5116361;28;20699;-74
2021/03/12 04:10:55;;;;;;;5.85;1.85;;;5.20;99.90;;;;;;5115335;28;20284;-74
2021/03/12 04:13:22;;;;;;;3.20;1.45;;;5.20;99.90;;;;;;5116542;28;20567;-73
2021/03/12 04:15:48;;;;;;;2.80;1.30;;;5.20;99.90;;;;;;5116050;28;20661;-73
2021/03/12 04:18:15;;;;;;;1.30;1.17;;;5.20;99.90;;;;;;5115982;28;20203;-73
2021/03/12 04:20:42;;;;;;;1.75;1.10;;;5.20;99.90;;;;;;5115357;28;20245;-74
2021/03/12 04:23:09;;;;;;;5.90;1.50;;;5.20;99.90;;;;;;5116066;28;20206;-74
2021/03/12 04:25:35;;;;;;;2.10;1.10;;;5.30;99.90;;;;;;5116131;28;20199;-73
2021/03/12 04:28:03;;;;;;;1.90;1.20;;;5.30;99.90;;;;;;5096016;28;20203;-72
2021/03/12 04:30:31;;;;;;;2.17;1.20;;;5.30;99.90;;;;;;5094962;28;20720;-73
2021/03/12 04:32:58;;;;;;;6.20;1.40;;;5.30;99.90;;;;;;5095457;28;20206;-73
2021/03/12 04:35:24;;;;;;;2.60;1.10;;;5.30;99.90;;;;;;5095441;28;20260;-73
2021/03/12 04:37:52;;;;;;;2.35;1.17;;;5.20;99.90;;;;;;5095598;28;20212;-72
2021/03/12 04:40:19;;;;;;;2.10;1.23;;;5.30;99.90;;;;;;5095207;28;20241;-72
2021/03/12 04:42:46;;;;;;;7.13;1.73;;;5.20;99.90;;;;;;5095262;28;20430;-72
2021/03/12 04:45:14;;;;;;;3.55;1.42;;;5.30;99.90;;;;;;5095565;28;20204;-73
2021/03/12 04:47:41;;;;;;;3.40;1.30;;;5.30;99.90;;;;;;5095285;28;20503;-73
2021/03/12 04:50:10;;;;;;;3.00;1.50;;;5.30;99.90;;;;;;5094833;28;20716;-73
2021/03/12 04:52:36;;;;;;;3.35;1.25;;;5.30;99.90;;;;;;5095275;28;20619;-74
2021/03/12 04:55:04;;;;;;;2.22;1.52;;;5.40;99.90;;;;;;5095591;28;20543;-73
2021/03/12 04:57:30;;;;;;;2.75;1.15;;;5.40;99.90;;;;;;5095590;28;20195;-73
2021/03/12 04:59:57;;;;;;;4.75;1.85;;;5.30;99.90;;;;;;5095902;28;20682;-72
2021/03/12 05:02:25;;;;;;;4.32;1.65;;;5.30;99.90;;;;;;5116053;28;20713;-72
2021/03/12 05:04:51;;;;;;;3.22;1.50;;;5.20;99.90;;;;;;5115712;28;20199;-72
2021/03/12 05:07:19;;;;;;;2.63;1.35;;;5.20;99.90;;;;;;5115828;28;20236;-72
2021/03/12 05:09:45;;;;;;;2.08;1.15;;;5.20;99.90;;;;;;5115314;28;20211;-73
2021/03/12 05:12:12;;;;;;;1.77;1.40;;;5.10;99.90;;;;;;5115317;28;20223;-72
2021/03/12 05:14:38;;;;;;;2.75;1.88;;;5.00;99.90;;;;;;5111718;28;20202;-71
2021/03/12 05:17:05;;;;;;;6.03;1.60;;;4.90;99.90;;;;;;5110457;28;20195;-73
2021/03/12 05:19:32;;;;;;;2.85;1.30;;;4.80;99.90;;;;;;5111123;28;20207;-72
2021/03/12 05:21:59;;;;;;;4.07;1.85;;;4.80;99.90;;;;;;5112527;28;20226;-74
2021/03/12 05:24:25;;;;;;;3.65;1.15;;;4.90;99.90;;;;;;5112395;28;20222;-73
2021/03/12 05:26:51;;;;;;;2.42;1.40;;;4.80;99.90;;;;;;5112299;28;20222;-74
2021/03/12 05:29:18;;;;;;;4.40;1.60;;;4.80;99.90;;;;;;5110303;28;20447;-72
2021/03/12 05:31:44;;;;;;;4.15;1.55;;;4.70;99.90;;;;;;5110239;28;20222;-72
2021/03/12 05:34:10;;;;;;;3.03;1.00;;;4.70;99.90;;;;;;5112085;28;20662;-72
2021/03/12 05:36:38;;;;;;;1.42;1.23;;;4.70;99.90;;;;;;5112020;28;20214;-72
2021/03/12 05:39:05;;;;;;;3.40;1.40;;;4.70;99.90;;;;;;5111686;28;20293;-72
2021/03/12 05:41:32;;;;;;;3.58;1.58;;;4.80;99.90;;;;;;5112042;28;20268;-72
2021/03/12 05:44:03;;;;;;;1.85;1.10;;;4.70;99.90;;;;;;5112072;28;20687;-72
2021/03/12 05:46:31;;;;;;;4.00;1.90;;;4.70;99.90;;;;;;5168870;22;20251;-74
2021/03/12 05:48:58;;;;;;;1.90;1.00;;;4.70;99.90;;;;;;5090890;28;20219;-71
2021/03/12 05:51:25;;;;;;;5.80;2.30;;;4.70;99.90;;;;;;5091341;28;20242;-71
2021/03/12 05:53:52;;;;;;;3.15;1.50;;;4.60;99.90;;;;;;5091236;28;20264;-71
2021/03/12 05:56:19;;;;;;;3.20;1.20;;;4.70;99.90;;;;;;5091471;28;20199;-70
2021/03/12 05:58:46;;;;;;;4.05;1.83;;;4.70;99.90;;;;;;5090850;28;20208;-71
2021/03/12 06:01:13;;;;;;;3.15;1.35;;;4.70;99.90;;;;;;5091407;28;20562;-71
2021/03/12 06:03:41;;;;;;;3.17;1.30;;;4.70;99.90;;;;;;5091231;28;20210;-73
2021/03/12 06:06:08;;;;;;;5.45;1.27;;;4.70;99.90;;;;;;5091198;28;20211;-69
2021/03/12 06:08:35;;;;;;;2.88;1.17;;;4.80;99.90;;;;;;5090827;28;20204;-70
2021/03/12 06:11:04;;;;;;;3.42;1.63;;;4.80;99.90;;;;;;5090806;28;20231;-71
2021/03/12 06:13:45;;;;;;;4.75;1.30;;;4.80;99.90;;;;;;5090114;28;20203;-71
2021/03/12 06:16:21;;;;;;;2.72;1.25;;;4.90;99.90;;;;;;5090829;28;20260;-70
2021/03/12 06:19:10;;;;;;;1.85;1.00;;;4.90;99.90;;;;;;5089983;28;20211;-71
2021/03/12 06:21:36;;;;;;;1.50;1.10;;;5.00;99.90;;;;;;5090061;28;20243;-71
2021/03/12 06:24:20;;;;;;;3.72;1.88;;;5.10;99.90;;;;;;5090068;28;20211;-70
2021/03/12 06:26:47;;;;;;;1.83;1.20;;;5.10;99.90;;;;;;5090429;28;20218;-70
2021/03/12 06:29:17;;;;;;;1.70;1.10;;;5.00;99.90;;;;;;5089960;28;20196;-70
2021/03/12 06:31:53;;;;;;;4.07;1.33;;;5.00;99.90;;;;;;5090092;28;20250;-70
2021/03/12 06:34:19;;;;;;;2.63;1.10;;;5.00;99.90;;;;;;5090245;28;20207;-70
2021/03/12 06:36:45;;;;;;;4.82;1.38;;;5.00;99.90;;;;;;5090515;28;20740;-70
2021/03/12 06:39:12;;;;;;;2.08;1.08;;;5.00;99.90;;;;;;5089681;28;20210;-70
2021/03/12 06:41:39;;;;;;;4.05;1.45;;;5.00;99.90;;;;;;5089921;28;20258;-69
2021/03/12 06:44:30;;;;;;;1.80;1.05;;;5.00;99.90;;;;;;5089635;28;20261;-70
2021/03/12 06:46:57;;;;;;;2.75;1.00;;;5.10;99.90;;;;;;5089737;28;20207;-70
2021/03/12 06:49:24;;;;;;;4.13;1.55;;;5.20;99.90;;;;;;5089194;28;20212;-70
2021/03/12 06:51:57;;;;;;;2.75;1.10;;;5.10;99.90;;;;;;5089702;28;20215;-70
2021/03/12 06:54:25;;;;;;;3.03;1.30;;;5.20;99.90;;;;;;5089788;28;20208;-69
2021/03/12 06:56:52;;;;;;;2.05;1.25;;;5.20;99.90;;;;;;5090178;28;20195;-70
2021/03/12 06:59:29;;;;;;;2.45;1.60;;;5.20;99.90;;;;;;5089365;28;20261;-70
2021/03/12 07:01:58;;;;;;;4.00;1.65;;;5.20;99.90;;;;;;5089320;28;20224;-70
2021/03/12 07:04:27;;;;;;;3.20;1.60;;;5.20;99.90;;;;;;5089592;28;20203;-70
2021/03/12 07:06:53;;;;;;;2.72;1.20;;;5.10;99.90;;;;;;5089267;28;20211;-70
2021/03/12 07:09:21;;;;;;;2.85;1.25;;;5.20;99.90;;;;;;5088908;28;20211;-70
2021/03/12 07:11:53;;;;;;;6.00;1.70;;;5.30;99.90;;;;;;5080731;28;20219;-70
2021/03/12 07:14:19;;;;;;;2.20;0.98;;;5.50;99.90;;;;;;5069046;28;20192;-70
2021/03/12 07:16:47;;;;;;;1.98;1.50;;;5.80;99.90;;;;;;5068848;28;20204;-70
2021/03/12 07:19:14;;;;;;;2.38;1.23;;;6.10;99.90;;;;;;5068245;28;20549;-70
2021/03/12 07:21:42;;;;;;;1.85;1.35;;;6.30;99.90;;;;;;5068946;28;20228;-70
2021/03/12 07:24:11;;;;;;;2.65;1.20;;;6.20;99.90;;;;;;5065769;28;20200;-70
2021/03/12 07:26:42;;;;;;;2.25;1.50;;;6.20;99.90;;;;;;5068838;28;20201;-70
2021/03/12 07:29:11;;;;;;;3.40;1.60;;;6.40;99.90;;;;;;5065136;28;20221;-69
2021/03/12 07:31:39;;;;;;;1.85;1.00;;;6.90;99.90;;;;;;5082608;28;20223;-70
2021/03/12 07:34:12;;;;;;;1.67;1.45;;;7.50;99.90;;;;;;5088619;28;20675;-70
2021/03/12 07:36:44;;;;;;;2.92;1.60;;;8.50;99.90;;;;;;5087805;28;20684;-70
2021/03/12 07:39:14;;;;;;;3.50;1.05;;;9.30;99.90;;;;;;5077071;28;20625;-70
2021/03/12 07:41:41;;;;;;;2.50;1.38;;;9.50;99.80;;;;;;5067538;28;20278;-70
2021/03/12 07:44:14;;;;;;;2.53;1.27;;;10.00;99.00;;;;;;5068219;28;20617;-70
2021/03/12 07:46:41;;;;;;;2.63;1.10;;;10.20;98.40;;;;;;5068114;28;20888;-70
2021/03/12 07:49:34;;;;;;;4.78;1.95;;;10.60;97.20;;;;;;5068395;28;20200;-70
2021/03/12 07:52:01;;;;;;;2.83;1.40;;;10.50;96.60;;;;;;5068133;28;20224;-70
2021/03/12 07:54:45;;;;;;;3.35;1.27;;;10.60;95.80;;;;;;5068573;28;20486;-70
2021/03/12 07:57:12;;;;;;;2.25;1.17;;;10.90;95.80;;;;;;5068254;28;20678;-70
2021/03/12 08:00:00;;;;;;;1.70;1.20;;;11.30;95.30;;;;;;5067427;28;20198;-71
2021/03/12 08:02:57;;;;;;;2.15;1.17;;;11.40;95.10;;;;;;5067671;28;20749;-70
2021/03/12 08:05:36;;;;;;;2.33;1.20;;;11.70;94.40;;;;;;5068971;28;20303;-70
2021/03/12 08:08:02;;;;;;;2.85;1.17;;;12.30;93.80;;;;;;5068796;28;20254;-70
2021/03/12 08:10:29;;;;;;;1.85;1.20;;;12.80;92.70;;;;;;5067189;28;20223;-70
2021/03/12 08:12:56;;;;;;;1.80;1.10;;;13.00;92.60;;;;;;5068253;28;20568;-70
2021/03/12 08:15:24;;;;;;;2.25;1.00;;;12.90;92.00;;;;;;5067781;28;20204;-70
2021/03/12 08:18:25;;;;;;;2.35;1.27;;;13.00;92.00;;;;;;5068013;28;20204;-70
2021/03/12 08:20:52;;;;;;;1.48;1.20;;;13.40;92.00;;;;;;5067380;28;20447;-71
2021/03/12 08:23:32;;;;;;;3.38;1.50;;;13.80;91.00;;;;;;5067023;28;20200;-70
2021/03/12 08:25:58;;;;;;;3.80;1.20;;;13.90;90.30;;;;;;5067773;28;20270;-70
2021/03/12 08:28:27;;;;;;;2.60;1.60;;;14.30;90.50;;;;;;5067446;28;20623;-70
2021/03/12 08:30:54;;;;;;;3.50;1.30;;;14.10;88.60;;;;;;5067228;28;20235;-70
2021/03/12 08:33:37;;;;;;;2.25;1.63;;;13.20;90.10;;;;;;5067482;28;20466;-70
2021/03/12 08:36:05;;;;;;;1.95;1.00;;;13.50;89.40;;;;;;5067721;28;20200;-72
2021/03/12 08:38:43;;;;;;;2.70;1.10;;;13.30;89.40;;;;;;5067364;28;20208;-71
2021/03/12 08:41:16;;;;;;;1.70;1.10;;;12.40;90.20;;;;;;5067614;28;20821;-70
2021/03/12 08:43:49;;;;;;;2.38;1.30;;;12.50;90.50;;;;;;5066528;28;20210;-71
2021/03/12 08:46:18;;;;;;;3.97;1.45;;;12.90;90.40;;;;;;5067671;28;20214;-71
2021/03/12 08:48:45;;;;;;;2.30;1.25;;;12.40;90.10;;;;;;5070061;28;20582;-70
2021/03/12 08:51:15;;;;;;;2.50;1.17;;;11.30;90.80;;;;;;5070837;28;20228;-70
2021/03/12 08:53:46;;;;;;;2.40;1.40;;;10.60;91.10;;;;;;5069831;28;20200;-70
2021/03/12 08:56:12;;;;;;;1.73;1.35;;;10.80;90.80;;;;;;5070941;28;20204;-71
2021/03/12 08:58:39;;;;;;;2.08;1.05;;;11.00;90.70;;;;;;5070462;28;20204;-71
2021/03/12 09:01:10;;;;;;;2.00;1.17;;;11.80;90.30;;;;;;5071390;28;20621;-70
2021/03/12 09:03:37;;;;;;;4.88;1.52;;;12.80;87.80;;;;;;5070924;28;20204;-71
2021/03/12 09:06:05;;;;;;;2.08;1.10;;;14.00;83.20;;;;;;5071349;28;20201;-71
2021/03/12 09:08:34;;;;;;;2.38;1.58;;;15.00;82.90;;;;;;5070577;28;20212;-72
2021/03/12 09:11:03;;;;;;;2.78;1.30;;;15.30;79.20;;;;;;5071501;28;20225;-71
2021/03/12 09:13:31;;;;;;;2.13;1.30;;;14.90;80.90;;;;;;5070196;28;20211;-71
2021/03/12 09:15:59;;;;;;;3.28;1.20;;;13.70;83.50;;;;;;5071152;28;20573;-70
2021/03/12 09:18:27;;;;;;;4.43;1.40;;;13.10;85.80;;;;;;5070485;28;20576;-71
2021/03/12 09:20:55;;;;;;;2.67;1.17;;;12.10;86.40;;;;;;5070233;28;20707;-71
2021/03/12 09:23:36;;;;;;;3.35;1.17;;;11.20;88.50;;;;;;5070495;28;20200;-71
2021/03/12 09:26:02;;;;;;;2.42;1.25;;;10.50;90.00;;;;;;5070938;28;20246;-71
2021/03/12 09:28:30;;;;;;;1.77;1.30;;;9.90;91.20;;;;;;5070288;28;20667;-70
2021/03/12 09:30:57;;;;;;;4.82;1.60;;;9.50;91.40;;;;;;5070036;28;20228;-71
2021/03/12 09:33:29;;;;;;;2.13;1.13;;;9.40;91.90;;;;;;5083978;28;20211;-71
2021/03/12 09:35:56;;;;;;;1.90;1.27;;;9.30;92.00;;;;;;5090675;28;20200;-71
2021/03/12 09:38:30;;;;;;;10.60;1.92;;;9.40;91.90;;;;;;5090620;28;20210;-71
2021/03/12 09:40:58;;;;;;;2.78;1.30;;;9.40;92.10;;;;;;5090372;28;20223;-70
2021/03/12 09:43:24;;;;;;;3.30;1.27;;;9.40;92.60;;;;;;5090393;28;20195;-70
2021/03/12 09:45:50;;;;;;;4.10;1.60;;;9.70;92.40;;;;;;5090384;28;20212;-70
2021/03/12 09:48:17;;;;;;;3.67;1.35;;;9.90;92.70;;;;;;5090529;28;20200;-71
2021/03/12 09:50:43;;;;;;;1.30;1.20;;;10.90;90.50;;;;;;5089733;28;20231;-71
2021/03/12 09:53:10;;;;;;;2.58;1.30;;;11.00;90.20;;;;;;5089368;28;20203;-71
2021/03/12 09:55:38;;;;;;;3.20;1.50;;;10.50;90.80;;;;;;5090154;28;20630;-70
2021/03/12 09:58:08;;;;;;;6.72;1.70;;;10.10;91.00;;;;;;5090327;28;20204;-71
2021/03/12 10:00:35;;;;;;;8.43;1.60;;;9.40;92.40;;;;;;5088715;28;20215;-71
2021/03/12 10:03:01;;;;;;;6.03;1.48;;;9.20;93.30;;;;;;5084345;28;20204;-70
2021/03/12 10:05:28;;;;;;;2.42;1.35;;;9.10;93.70;;;;;;5071218;28;20280;-70
2021/03/12 10:08:00;;;;;;;4.80;1.23;;;9.00;93.50;;;;;;5089921;28;20199;-71
2021/03/12 10:10:28;;;;;;;2.63;1.30;;;9.00;93.60;;;;;;5088635;28;20216;-70
2021/03/12 10:12:55;;;;;;;2.45;1.10;;;8.90;94.00;;;;;;5089946;28;20234;-71
2021/03/12 10:15:24;;;;;;;1.52;1.10;;;8.70;94.70;;;;;;5090269;28;20701;-71
2021/03/12 10:17:52;;;;;;;1.30;1.10;;;8.60;95.40;;;;;;5090356;28;20207;-70
2021/03/12 10:20:25;;;;;;;4.97;1.50;;;8.20;97.40;;;;;;5089784;28;20222;-71
2021/03/12 10:22:53;;;;;;;3.25;1.55;;;7.80;98.90;;;;;;5089667;28;20667;-71
2021/03/12 10:25:20;;;;;;;3.35;1.40;;;7.90;99.90;;;;;;5090033;28;20562;-71
2021/03/12 10:27:48;;;;;;;5.03;1.75;;;9.00;99.90;;;;;;5090153;28;20631;-70
2021/03/12 10:30:17;;;;;;;5.15;1.83;;;10.70;97.30;;;;;;5088898;28;20219;-71
2021/03/12 10:32:46;;;;;;;1.75;1.02;;;12.60;95.70;;;;;;5089080;28;20199;-71
2021/03/12 10:35:33;;;;;;;2.30;1.20;;;14.40;93.80;;;;;;5089625;28;20204;-70
2021/03/12 10:38:01;;;;;;;2.92;1.40;;;15.60;91.50;;;;;;5084907;28;20213;-70
2021/03/12 10:40:35;;;;;;;4.80;1.30;;;15.40;91.60;;;;;;5088212;28;20219;-71
2021/03/12 10:43:14;;;;;;;2.07;1.10;;;15.60;90.40;;;;;;5089458;28;20461;-70
2021/03/12 10:45:44;;;;;;;2.08;1.20;;;15.10;90.60;;;;;;5088754;28;20472;-71
2021/03/12 10:48:12;;;;;;;1.27;1.10;;;14.50;91.70;;;;;;5089545;28;20712;-71
2021/03/12 10:50:39;;;;;;;1.70;1.20;;;14.10;90.10;;;;;;5088322;28;20677;-70
2021/03/12 10:53:10;;;;;;;3.40;1.20;;;14.40;90.00;;;;;;5090224;28;20195;-71
2021/03/12 10:55:40;;;;;;;1.85;1.23;;;14.70;88.10;;;;;;5089344;28;20535;-70
2021/03/12 10:58:06;;;;;;;3.43;1.40;;;14.60;89.40;;;;;;5089461;28;20208;-71
2021/03/12 11:00:33;;;;;;;2.20;1.30;;;14.50;89.10;;;;;;5083529;28;20514;-71
2021/03/12 11:03:02;;;;;;;4.57;1.27;;;14.60;86.80;;;;;;5069502;28;20589;-71
2021/03/12 11:05:30;;;;;;;2.30;1.23;;;14.70;86.80;;;;;;5068720;28;20226;-71
2021/03/12 11:07:56;;;;;;;2.93;1.73;;;15.80;86.90;;;;;;5069293;28;20458;-71
2021/03/12 11:10:23;;;;;;;2.57;1.20;;;17.10;82.80;;;;;;5068177;28;20489;-71
2021/03/12 11:12:52;;;;;;;2.00;1.50;;;17.80;76.80;;;;;;5069092;28;20528;-72
2021/03/12 11:15:20;;;;;;;1.43;1.00;;;18.50;73.70;;;;;;5069190;28;20454;-71
2021/03/12 11:17:46;;;;;;;2.23;1.33;;;18.70;72.10;;;;;;5069312;28;20822;-73
2021/03/12 11:20:19;;;;;;;1.47;1.00;;;18.60;70.40;;;;;;5068862;28;20493;-71
2021/03/12 11:22:48;;;;;;;1.30;1.20;;;18.30;72.00;;;;;;5068881;28;20460;-71
2021/03/12 11:25:16;;;;;;;2.07;1.20;;;18.90;71.30;;;;;;5068673;28;20992;-71
2021/03/12 11:27:43;;;;;;;2.80;1.10;;;18.40;70.30;;;;;;5068566;28;20459;-71
2021/03/12 11:30:12;;;;;;;1.30;1.00;;;18.20;71.60;;;;;;5067796;28;20482;-71
2021/03/12 11:32:39;;;;;;;2.33;1.30;;;18.30;70.60;;;;;;5069175;28;20527;-71
2021/03/12 11:35:07;;;;;;;1.40;1.20;;;18.60;69.20;;;;;;5068977;28;20548;-70
2021/03/12 11:37:33;;;;;;;2.30;1.20;;;18.50;71.10;;;;;;5068729;28;20454;-70
2021/03/12 11:40:00;;;;;;;2.60;1.43;;;19.60;68.90;;;;;;5068390;28;20470;-70
2021/03/12 11:42:27;;;;;;;1.83;1.20;;;18.50;67.20;;;;;;5068527;28;20459;-69
2021/03/12 11:44:53;;;;;;;2.37;1.30;;;18.70;67.50;;;;;;5068573;28;20454;-70
2021/03/12 11:47:19;;;;;;;1.20;1.10;;;18.20;67.40;;;;;;5129013;22;20490;-72
2021/03/12 11:49:47;;;;;;;3.47;1.30;;;17.40;68.50;;;;;;5068135;28;20450;-73
2021/03/12 11:52:14;;;;;;;2.83;1.20;;;16.10;69.50;;;;;;5068772;28;20478;-72
2021/03/12 11:54:40;;;;;;;2.20;1.50;;;14.70;70.00;;;;;;5068650;28;20827;-72
2021/03/12 11:57:08;;;;;;;4.13;1.30;;;13.40;71.90;;;;;;5068890;28;20959;-72
2021/03/12 11:59:34;;;;;;;1.90;1.47;;;12.80;74.60;;;;;;5068056;28;20847;-72
2021/03/12 12:02:02;;;;;;;1.55;1.00;;;12.30;76.70;;;;;;5068488;28;20836;-71
2021/03/12 12:04:28;;;;;;;3.50;1.57;;;11.90;78.60;;;;;;5068284;28;20224;-72
2021/03/12 12:06:55;;;;;;;1.92;1.10;;;11.80;79.60;;;;;;5068496;28;21003;-72
2021/03/12 12:09:21;;;;;;;2.88;1.33;;;11.60;82.90;;;;;;5067526;28;20204;-72
2021/03/12 12:11:57;;;;;;;1.92;1.30;;;11.50;84.40;;;;;;5068504;28;20286;-72
2021/03/12 12:14:24;;;;;;;1.60;1.08;;;11.80;82.80;;;;;;5068064;28;20204;-72
2021/03/12 12:16:50;;;;;;;2.65;1.42;;;11.70;84.10;;;;;;5068738;28;20212;-72
2021/03/12 12:19:17;;;;;;;2.13;1.15;;;11.70;85.90;;;;;;5067841;28;20215;-72
2021/03/12 12:21:43;;;;;;;2.80;1.30;;;12.80;80.70;;;;;;5068911;28;20212;-72
2021/03/12 12:24:10;;;;;;;2.70;1.25;;;12.90;81.10;;;;;;5072465;28;20249;-74
2021/03/12 12:26:36;;;;;;;3.20;1.13;;;12.50;81.60;;;;;;5045024;28;20305;-74
2021/03/12 12:29:04;;;;;;;2.70;1.40;;;12.00;81.20;;;;;;5054781;28;20231;-74
2021/03/12 12:31:31;;;;;;;5.03;1.25;;;11.30;80.30;;;;;;5055491;28;20730;-73
2021/03/12 12:33:57;;;;;;;4.40;1.50;;;11.30;81.50;;;;;;5062322;28;20192;-73
2021/03/12 12:36:25;;;;;;;2.00;1.13;;;12.20;81.30;;;;;;5058350;28;20239;-73
2021/03/12 12:38:54;;;;;;;1.95;1.00;;;13.20;79.60;;;;;;5060569;28;20196;-73
2021/03/12 12:41:24;;;;;;;1.20;1.00;;;13.70;78.90;;;;;;5049602;28;20691;-73
2021/03/12 12:43:51;;;;;;;2.25;1.30;;;13.90;76.80;;;;;;5052457;28;20562;-73
2021/03/12 12:46:17;;;;;;;4.10;1.85;;;13.90;78.10;;;;;;5063021;28;20570;-73
2021/03/12 12:48:45;;;;;;;5.07;1.48;;;13.90;79.20;;;;;;5060994;28;20278;-72
2021/03/12 12:51:12;;;;;;;2.70;1.33;;;13.50;75.60;;;;;;5052334;28;20228;-72
2021/03/12 12:53:38;;;;;;;1.87;1.20;;;13.20;75.60;;;;;;5054234;28;20459;-73
2021/03/12 12:56:05;;;;;;;2.58;1.42;;;13.60;76.60;;;;;;5053519;28;20538;-72
2021/03/12 12:58:34;;;;;;;4.80;1.20;;;13.80;74.00;;;;;;5049292;28;20201;-71
2021/03/12 13:01:03;;;;;;;4.07;1.23;;;14.30;75.00;;;;;;5049654;28;20467;-71